Time;durP1;ratioP1;P1;durP2;ratioP2;P2;SDS_P1;SDS_P2;PMS_P1;PMS_P2;Temp;Humidity;BMP_temperature;BMP_pressure;BME280_temperature;BME280_humidity;BME280_pressure;Samples;Min_cycle;Max_cycle;Signal;HPM_P1;HPM_P2
2023/09/05 00:00:20;;;;;;;;;;;19.60;99.90;;;;;;7336107;19;108626;-73
2023/09/05 00:02:48;;;;;;;;;;;19.60;99.90;;;;;;7333078;19;110403;-73
2023/09/05 00:05:18;;;;;;;;;;;19.60;99.90;;;;;;7329933;19;109746;-73
2023/09/05 00:07:45;;;;;;;;;;;19.50;99.90;;;;;;7331090;19;110243;-73
2023/09/05 00:10:12;;;;;;;;;;;19.50;99.90;;;;;;7330887;19;109661;-73
2023/09/05 00:12:41;;;;;;;;;;;19.40;99.90;;;;;;7330809;19;109403;-73
2023/09/05 00:15:09;;;;;;;;;;;19.40;99.90;;;;;;7335354;19;109505;-72
2023/09/05 00:17:37;;;;;;;;;;;19.40;99.90;;;;;;7330393;19;109079;-73
2023/09/05 00:20:05;;;;;;;;;;;19.40;99.90;;;;;;7332133;19;109978;-73
2023/09/05 00:22:32;;;;;;;;;;;19.30;99.90;;;;;;7336695;19;110756;-73
2023/09/05 00:25:00;;;;;;;;;;;19.30;99.90;;;;;;7331112;19;111272;-72
2023/09/05 00:27:27;;;;;;;;;;;19.30;99.90;;;;;;7328018;19;109163;-73
2023/09/05 00:29:57;;;;;;;;;;;19.20;99.90;;;;;;7330889;19;108859;-73
2023/09/05 00:32:24;;;;;;;;;;;19.10;99.90;;;;;;7330412;19;109087;-73
2023/09/05 00:34:51;;;;;;;;;;;19.10;99.90;;;;;;7331932;19;110208;-73
2023/09/05 00:37:22;;;;;;;;;;;19.10;99.90;;;;;;7330507;19;108953;-72
2023/09/05 00:39:49;;;;;;;;;;;19.00;99.90;;;;;;7329991;19;108937;-73
2023/09/05 00:42:17;;;;;;;;;;;18.90;99.90;;;;;;7330767;19;110333;-72
2023/09/05 00:44:47;;;;;;;;;;;18.90;99.90;;;;;;7333054;19;109982;-72
2023/09/05 00:47:14;;;;;;;;;;;18.80;99.90;;;;;;7330489;19;110097;-72
2023/09/05 00:49:47;;;;;;;;;;;18.80;99.90;;;;;;7326789;19;111910;-72
2023/09/05 00:52:17;;;;;;;;;;;18.80;99.90;;;;;;7332655;19;108616;-73
2023/09/05 00:54:45;;;;;;;;;;;18.80;99.90;;;;;;7333791;19;110244;-74
2023/09/05 00:57:17;;;;;;;;;;;18.70;99.90;;;;;;7332800;19;109032;-73
2023/09/05 00:59:45;;;;;;;;;;;18.70;99.90;;;;;;7328979;19;109021;-73
2023/09/05 01:02:12;;;;;;;;;;;18.70;99.90;;;;;;7331147;19;109950;-73
2023/09/05 01:04:41;;;;;;;;;;;18.60;99.90;;;;;;7336629;19;108780;-72
2023/09/05 01:07:27;;;;;;;;;;;18.50;99.90;;;;;;7345492;19;110074;-73
2023/09/05 01:10:02;;;;;;;;;;;18.50;99.90;;;;;;7336883;19;108508;-73
2023/09/05 01:12:29;;;;;;;;;;;18.40;99.90;;;;;;7338965;19;110195;-72
2023/09/05 01:14:56;;;;;;;;;;;18.40;99.90;;;;;;7337642;19;111143;-72
2023/09/05 01:17:32;;;;;;;;;;;18.40;99.90;;;;;;7338549;19;108635;-72
2023/09/05 01:20:00;;;;;;;;;;;18.40;99.90;;;;;;7337125;19;111376;-72
2023/09/05 01:22:27;;;;;;;;;;;18.40;99.90;;;;;;7336882;19;110343;-73
2023/09/05 01:24:56;;;;;;;;;;;18.50;99.90;;;;;;7335407;19;109363;-73
2023/09/05 01:27:24;;;;;;;;;;;18.40;99.90;;;;;;7331528;19;108775;-72
2023/09/05 01:29:53;;;;;;;;;;;18.40;99.90;;;;;;7340273;19;110541;-73
2023/09/05 01:32:20;;;;;;;;;;;18.40;99.90;;;;;;7331848;19;109127;-72
2023/09/05 01:34:47;;;;;;;;;;;18.30;99.90;;;;;;7338973;19;110247;-72
2023/09/05 01:37:15;;;;;;;;;;;18.30;99.90;;;;;;7335615;19;109481;-72
2023/09/05 01:39:42;;;;;;;;;;;18.30;99.90;;;;;;7336254;19;108663;-72
2023/09/05 01:42:10;;;;;;;;;;;18.30;99.90;;;;;;7335459;19;109901;-72
2023/09/05 01:44:38;;;;;;;;;;;18.20;99.90;;;;;;7334850;19;112283;-73
2023/09/05 01:47:06;;;;;;;;;;;18.20;99.90;;;;;;7337174;19;110457;-72
2023/09/05 01:49:33;;;;;;;;;;;18.20;99.90;;;;;;7338650;19;109911;-73
2023/09/05 01:52:00;;;;;;;;;;;18.20;99.90;;;;;;7335553;19;108282;-72
2023/09/05 01:54:28;;;;;;;;;;;18.20;99.90;;;;;;7336547;19;111328;-73
2023/09/05 01:56:55;;;;;;;;;;;18.20;99.90;;;;;;7335572;19;109433;-72
2023/09/05 01:59:22;;;;;;;;;;;18.20;99.90;;;;;;7338577;19;108458;-72
2023/09/05 02:01:49;;;;;;;;;;;18.10;99.90;;;;;;7335944;19;109611;-72
2023/09/05 02:04:16;;;;;;;;;;;18.20;99.90;;;;;;7335170;19;109847;-72
2023/09/05 02:06:43;;;;;;;;;;;18.10;99.90;;;;;;7334841;19;111139;-72
2023/09/05 02:09:11;;;;;;;;;;;18.10;99.90;;;;;;7333974;19;111912;-72
2023/09/05 02:11:38;;;;;;;;;;;18.00;99.90;;;;;;7338841;19;109516;-72
2023/09/05 02:14:05;;;;;;;;;;;18.00;99.90;;;;;;7336133;19;110417;-72
2023/09/05 02:16:33;;;;;;;;;;;18.00;99.90;;;;;;7331694;19;109346;-73
2023/09/05 02:19:00;;;;;;;;;;;18.00;99.90;;;;;;7332801;19;109334;-73
2023/09/05 02:21:27;;;;;;;;;;;18.00;99.90;;;;;;7330603;19;110032;-72
2023/09/05 02:23:55;;;;;;;;;;;17.90;99.90;;;;;;7337525;19;109682;-72
2023/09/05 02:26:22;;;;;;;;;;;17.80;99.90;;;;;;7333695;19;111633;-72
2023/09/05 02:28:49;;;;;;;;;;;17.70;99.90;;;;;;7337160;19;109279;-72
2023/09/05 02:31:16;;;;;;;;;;;17.70;99.90;;;;;;7334409;19;109154;-72
2023/09/05 02:33:44;;;;;;;;;;;17.70;99.90;;;;;;7337877;19;109330;-72
2023/09/05 02:36:15;;;;;;;;;;;17.70;99.90;;;;;;7330638;19;109058;-73
2023/09/05 02:38:42;;;;;;;;;;;17.70;99.90;;;;;;7334023;19;110642;-71
2023/09/05 02:41:18;;;;;;;;;;;17.70;99.90;;;;;;7331423;19;110427;-72
2023/09/05 02:43:46;;;;;;;;;;;17.70;99.90;;;;;;7330347;19;108689;-71
2023/09/05 02:46:14;;;;;;;;;;;17.70;99.90;;;;;;7331483;19;109025;-72
2023/09/05 02:48:42;;;;;;;;;;;17.70;99.90;;;;;;7330432;19;109663;-72
2023/09/05 02:51:10;;;;;;;;;;;17.70;99.90;;;;;;7330433;19;109184;-72
2023/09/05 02:53:38;;;;;;;;;;;17.70;99.90;;;;;;7331815;19;109017;-73
2023/09/05 02:56:05;;;;;;;;;;;17.70;99.90;;;;;;7340546;19;109116;-72
2023/09/05 02:58:32;;;;;;;;;;;17.60;99.90;;;;;;7332900;19;109198;-72
2023/09/05 03:01:08;;;;;;;;;;;17.50;99.90;;;;;;7333439;19;110267;-73
2023/09/05 03:03:35;;;;;;;;;;;17.50;99.90;;;;;;7332381;19;108784;-72
2023/09/05 03:06:13;;;;;;;;;;;17.40;99.90;;;;;;7334127;19;110127;-73
2023/09/05 03:08:42;;;;;;;;;;;17.40;99.90;;;;;;7333045;19;109243;-73
2023/09/05 03:11:10;;;;;;;;;;;17.40;99.90;;;;;;7334165;19;110304;-73
2023/09/05 03:13:37;;;;;;;;;;;17.50;99.90;;;;;;7333416;19;109859;-71
2023/09/05 03:16:04;;;;;;;;;;;17.40;99.90;;;;;;7334006;19;112183;-72
2023/09/05 03:18:32;;;;;;;;;;;17.40;99.90;;;;;;7337507;19;111287;-72
2023/09/05 03:20:59;;;;;;;;;;;17.40;99.90;;;;;;7337731;19;110091;-72
2023/09/05 03:23:26;;;;;;;;;;;17.40;99.90;;;;;;7329810;19;109190;-72
2023/09/05 03:25:54;;;;;;;;;;;17.40;99.90;;;;;;7335874;19;108646;-73
2023/09/05 03:28:21;;;;;;;;;;;17.40;99.90;;;;;;7328774;19;109163;-72
2023/09/05 03:30:48;;;;;;;;;;;17.40;99.90;;;;;;7333914;19;108917;-72
2023/09/05 03:33:15;;;;;;;;;;;17.40;99.90;;;;;;7330302;19;109275;-72
2023/09/05 03:35:42;;;;;;;;;;;17.30;99.90;;;;;;7336560;19;109119;-72
2023/09/05 03:38:11;;;;;;;;;;;17.20;99.90;;;;;;7329856;19;109441;-72
2023/09/05 03:40:38;;;;;;;;;;;17.30;99.90;;;;;;7337088;19;109278;-72
2023/09/05 03:43:07;;;;;;;;;;;17.30;99.90;;;;;;7331251;19;109560;-72
2023/09/05 03:45:35;;;;;;;;;;;17.30;99.90;;;;;;7331238;19;110597;-76
2023/09/05 03:48:02;;;;;;;;;;;17.20;99.90;;;;;;7331403;19;109632;-76
2023/09/05 03:50:29;;;;;;;;;;;17.20;99.90;;;;;;7333227;19;108856;-74
2023/09/05 03:52:56;;;;;;;;;;;17.20;99.90;;;;;;7333182;19;109155;-77
2023/09/05 03:55:24;;;;;;;;;;;17.20;99.90;;;;;;7331520;19;110027;-73
2023/09/05 03:57:51;;;;;;;;;;;17.20;99.90;;;;;;7330515;19;109206;-72
2023/09/05 04:00:18;;;;;;;;;;;17.10;99.90;;;;;;7336734;19;109078;-73
2023/09/05 04:02:45;;;;;;;;;;;17.10;99.90;;;;;;7331000;19;108922;-78
2023/09/05 04:05:16;;;;;;;;;;;17.20;99.90;;;;;;7330792;19;109284;-75
2023/09/05 04:07:43;;;;;;;;;;;17.20;99.90;;;;;;7332560;19;109316;-79
2023/09/05 04:10:11;;;;;;;;;;;17.20;99.90;;;;;;7331755;19;108866;-77
2023/09/05 04:12:38;;;;;;;;;;;17.10;99.90;;;;;;7333150;19;109177;-75
2023/09/05 04:15:06;;;;;;;;;;;17.00;99.90;;;;;;7331126;19;109090;-75
2023/09/05 04:17:33;;;;;;;;;;;17.00;99.90;;;;;;7331741;19;108923;-75
2023/09/05 04:20:01;;;;;;;;;;;17.00;99.90;;;;;;7332036;19;108542;-77
2023/09/05 04:22:28;;;;;;;;;;;17.00;99.90;;;;;;7337309;19;111329;-79
2023/09/05 04:24:55;;;;;;;;;;;17.00;99.90;;;;;;7326305;19;109260;-74
2023/09/05 04:27:23;;;;;;;;;;;16.90;99.90;;;;;;7331236;19;112239;-76
2023/09/05 04:29:51;;;;;;;;;;;16.90;99.90;;;;;;7332783;19;108499;-77
2023/09/05 04:32:28;;;;;;;;;;;16.90;99.90;;;;;;7321420;19;108887;-76
2023/09/05 04:35:00;;;;;;;;;;;16.90;99.90;;;;;;7329507;19;110344;-77
2023/09/05 04:37:27;;;;;;;;;;;16.90;99.90;;;;;;7324942;19;108499;-72
2023/09/05 04:39:55;;;;;;;;;;;16.90;99.90;;;;;;7335834;19;109686;-74
2023/09/05 04:42:25;;;;;;;;;;;16.80;99.90;;;;;;7336783;19;109305;-74
2023/09/05 04:44:52;;;;;;;;;;;16.80;99.90;;;;;;7340303;19;109180;-77
2023/09/05 04:47:23;;;;;;;;;;;16.90;99.90;;;;;;7336851;19;110406;-74
2023/09/05 04:49:51;;;;;;;;;;;16.90;99.90;;;;;;7341397;19;109201;-74
2023/09/05 04:52:19;;;;;;;;;;;16.90;99.90;;;;;;7334795;19;110731;-76
2023/09/05 04:54:46;;;;;;;;;;;16.90;99.90;;;;;;7339210;19;109702;-79
2023/09/05 04:57:14;;;;;;;;;;;16.90;99.90;;;;;;7338601;19;109586;-74
2023/09/05 04:59:43;;;;;;;;;;;16.90;99.90;;;;;;7335534;19;109692;-78
2023/09/05 05:02:10;;;;;;;;;;;16.80;99.90;;;;;;7328867;19;110228;-74
2023/09/05 05:04:38;;;;;;;;;;;16.80;99.90;;;;;;7333392;19;110732;-76
2023/09/05 05:07:05;;;;;;;;;;;16.80;99.90;;;;;;7339241;19;108733;-72
2023/09/05 05:09:32;;;;;;;;;;;16.70;99.90;;;;;;7334803;19;113727;-74
2023/09/05 05:12:00;;;;;;;;;;;16.70;99.90;;;;;;7337242;19;108762;-76
2023/09/05 05:14:28;;;;;;;;;;;16.70;99.90;;;;;;7332256;19;114537;-90
2023/09/05 05:16:55;;;;;;;;;;;16.70;99.90;;;;;;7334359;19;110585;-76
2023/09/05 05:19:23;;;;;;;;;;;16.80;99.90;;;;;;7334658;19;110062;-75
2023/09/05 05:21:50;;;;;;;;;;;16.80;99.90;;;;;;7337285;19;109524;-72
2023/09/05 05:24:18;;;;;;;;;;;16.80;99.90;;;;;;7339522;19;110731;-72
2023/09/05 05:26:45;;;;;;;;;;;16.80;99.90;;;;;;7338764;19;109671;-72
2023/09/05 05:29:12;;;;;;;;;;;16.80;99.90;;;;;;7343128;19;109141;-73
2023/09/05 05:31:39;;;;;;;;;;;16.80;99.90;;;;;;7336941;19;111367;-73
2023/09/05 05:34:06;;;;;;;;;;;16.80;99.90;;;;;;7333782;19;110151;-73
2023/09/05 05:36:34;;;;;;;;;;;16.80;99.90;;;;;;7330999;19;109911;-73
2023/09/05 05:39:02;;;;;;;;;;;16.80;99.90;;;;;;7334317;19;109607;-76
2023/09/05 05:41:30;;;;;;;;;;;16.80;99.90;;;;;;7332686;19;109060;-75
2023/09/05 05:43:57;;;;;;;;;;;16.90;99.90;;;;;;7338015;19;108636;-77
2023/09/05 05:46:24;;;;;;;;;;;16.90;99.90;;;;;;7331132;19;110882;-76
2023/09/05 05:48:52;;;;;;;;;;;16.90;99.90;;;;;;7335767;19;109223;-76
2023/09/05 05:51:19;;;;;;;;;;;17.00;99.90;;;;;;7334671;19;111096;-74
2023/09/05 05:56:27;;;;;;;;;;;17.10;99.90;;;;;;7369394;19;107946;-75
2023/09/05 05:59:00;;;;;;;;;;;17.10;99.90;;;;;;7366313;19;119654;-91
2023/09/05 06:01:38;;;;;;;;;;;17.20;99.90;;;;;;7370521;19;112060;-91
2023/09/05 06:04:05;;;;;;;;;;;17.30;99.90;;;;;;7367784;19;109028;-90
2023/09/05 06:06:36;;;;;;;;;;;17.30;99.90;;;;;;7368838;19;109214;-90
2023/09/05 06:11:59;;;;;;;;;;;17.40;99.90;;;;;;7365910;19;108563;-89
2023/09/05 06:14:27;;;;;;;;;;;17.40;99.90;;;;;;7360458;19;108073;-89
2023/09/05 06:16:54;;;;;;;;;;;17.50;99.90;;;;;;7363160;19;108729;-89
2023/09/05 06:19:22;;;;;;;;;;;17.60;99.90;;;;;;7365020;19;109154;-89
2023/09/05 06:21:56;;;;;;;;;;;17.70;99.90;;;;;;7360958;19;109602;-91
2023/09/05 06:24:35;;;;;;;;;;;17.70;99.90;;;;;;7334789;19;108241;-73
2023/09/05 06:27:02;;;;;;;;;;;17.80;99.90;;;;;;7332701;19;112935;-72
2023/09/05 06:40:34;;;;;;;;;;;18.40;99.90;;;;;;7333186;19;109296;-72
2023/09/05 06:43:03;;;;;;;;;;;18.50;99.90;;;;;;7333264;19;109105;-72
2023/09/05 06:45:31;;;;;;;;;;;18.70;99.90;;;;;;7333946;19;109583;-72
2023/09/05 06:47:58;;;;;;;;;;;18.80;99.90;;;;;;7334650;19;110399;-72
2023/09/05 06:50:26;;;;;;;;;;;18.90;99.90;;;;;;7329004;19;109755;-73
2023/09/05 06:52:53;;;;;;;;;;;19.00;99.90;;;;;;7330953;19;109059;-72
2023/09/05 06:55:20;;;;;;;;;;;19.10;99.90;;;;;;7330958;19;109093;-72
2023/09/05 06:57:49;;;;;;;;;;;19.20;99.90;;;;;;7338148;19;110359;-72
2023/09/05 07:00:16;;;;;;;;;;;19.30;99.90;;;;;;7331596;19;109040;-72
2023/09/05 07:02:43;;;;;;;;;;;19.40;99.90;;;;;;7327137;19;111493;-72
2023/09/05 07:05:10;;;;;;;;;;;19.50;99.90;;;;;;7333833;19;109648;-72
2023/09/05 07:07:38;;;;;;;;;;;19.60;99.90;;;;;;7331356;19;109601;-72
2023/09/05 07:10:05;;;;;;;;;;;19.70;99.90;;;;;;7334232;19;109946;-72
2023/09/05 07:12:32;;;;;;;;;;;19.90;99.90;;;;;;7331023;19;109757;-72
2023/09/05 07:15:00;;;;;;;;;;;20.00;99.90;;;;;;7331355;19;109263;-71
2023/09/05 07:17:28;;;;;;;;;;;20.10;99.90;;;;;;7332824;19;110376;-72
2023/09/05 07:19:55;;;;;;;;;;;20.20;99.90;;;;;;7341657;19;108327;-74
2023/09/05 07:22:23;;;;;;;;;;;20.30;99.90;;;;;;7327790;19;110119;-70
2023/09/05 07:24:51;;;;;;;;;;;20.40;99.90;;;;;;7331092;19;109758;-73
2023/09/05 07:27:20;;;;;;;;;;;20.50;99.90;;;;;;7334430;19;111328;-72
2023/09/05 07:29:48;;;;;;;;;;;20.60;99.90;;;;;;7333621;19;109758;-73
2023/09/05 07:32:15;;;;;;;;;;;20.60;99.90;;;;;;7332029;19;110434;-72
2023/09/05 07:34:43;;;;;;;;;;;20.80;99.90;;;;;;7332842;19;108746;-72
2023/09/05 07:37:10;;;;;;;;;;;20.90;99.90;;;;;;7331662;19;109592;-71
2023/09/05 07:39:38;;;;;;;;;;;21.00;99.90;;;;;;7335332;19;111137;-73
2023/09/05 07:42:06;;;;;;;;;;;21.10;99.90;;;;;;7337156;19;108821;-72
2023/09/05 07:44:33;;;;;;;;;;;21.30;99.90;;;;;;7334052;19;109008;-73
2023/09/05 07:47:00;;;;;;;;;;;21.40;99.90;;;;;;7335201;19;108705;-71
2023/09/05 07:49:31;;;;;;;;;;;21.50;99.90;;;;;;7330656;19;113968;-71
2023/09/05 07:51:59;;;;;;;;;;;21.60;99.90;;;;;;7334526;19;109135;-72
2023/09/05 07:54:32;;;;;;;;;;;21.70;99.90;;;;;;7331445;19;110102;-72
2023/09/05 07:56:59;;;;;;;;;;;21.80;99.90;;;;;;7334788;19;109960;-73
2023/09/05 07:59:26;;;;;;;;;;;22.00;99.90;;;;;;7333443;19;109544;-72
2023/09/05 08:01:55;;;;;;;;;;;22.10;99.90;;;;;;7335375;19;108522;-72
2023/09/05 08:04:23;;;;;;;;;;;22.20;99.90;;;;;;7334635;19;112279;-74
2023/09/05 08:06:50;;;;;;;;;;;22.30;99.90;;;;;;7335523;19;111188;-72
2023/09/05 08:09:17;;;;;;;;;;;22.40;99.90;;;;;;7334196;19;110151;-72
2023/09/05 08:11:45;;;;;;;;;;;22.50;99.90;;;;;;7333057;19;109241;-73
2023/09/05 08:14:14;;;;;;;;;;;22.60;99.90;;;;;;7331945;19;109394;-73
2023/09/05 08:16:41;;;;;;;;;;;22.70;99.90;;;;;;7330305;19;109084;-72
2023/09/05 08:19:08;;;;;;;;;;;22.80;99.90;;;;;;7335184;19;109672;-72
2023/09/05 08:21:36;;;;;;;;;;;22.90;99.90;;;;;;7331287;19;109679;-73
2023/09/05 08:24:03;;;;;;;;;;;23.00;99.90;;;;;;7336854;19;108901;-72
2023/09/05 08:26:33;;;;;;;;;;;23.10;99.90;;;;;;7332560;19;109170;-75
2023/09/05 08:29:03;;;;;;;;;;;23.20;99.90;;;;;;7332677;19;109930;-72
2023/09/05 08:31:31;;;;;;;;;;;23.40;99.90;;;;;;7329999;19;109129;-73
2023/09/05 08:33:58;;;;;;;;;;;23.50;99.90;;;;;;7332205;19;110372;-72
2023/09/05 08:36:26;;;;;;;;;;;23.60;99.90;;;;;;7333078;19;110432;-73
2023/09/05 08:38:53;;;;;;;;;;;23.80;99.90;;;;;;7328191;19;109157;-72
2023/09/05 08:41:20;;;;;;;;;;;23.80;99.90;;;;;;7334852;19;108263;-75
2023/09/05 08:43:47;;;;;;;;;;;23.80;99.90;;;;;;7332277;19;109114;-72
2023/09/05 08:46:15;;;;;;;;;;;23.90;99.90;;;;;;7333992;19;109890;-73
2023/09/05 08:48:43;;;;;;;;;;;24.10;99.90;;;;;;7333651;19;114962;-72
2023/09/05 08:51:26;;;;;;;;;;;24.20;99.90;;;;;;7332827;19;110199;-72
2023/09/05 08:53:56;;;;;;;;;;;24.20;99.90;;;;;;7331601;19;109588;-72
2023/09/05 08:56:24;;;;;;;;;;;24.30;99.90;;;;;;7331705;19;109380;-73
2023/09/05 08:58:55;;;;;;;;;;;24.30;99.90;;;;;;7336322;19;108515;-72
2023/09/05 09:01:25;;;;;;;;;;;24.20;99.90;;;;;;7334175;19;109095;-73
2023/09/05 09:03:54;;;;;;;;;;;24.20;99.90;;;;;;7331078;19;111189;-73
2023/09/05 09:06:25;;;;;;;;;;;24.30;99.90;;;;;;7333527;19;109160;-72
2023/09/05 09:08:53;;;;;;;;;;;24.40;99.90;;;;;;7340240;19;109216;-73
2023/09/05 09:11:21;;;;;;;;;;;24.50;99.90;;;;;;7331155;19;109290;-71
2023/09/05 09:13:51;;;;;;;;;;;24.50;99.90;;;;;;7334146;19;109131;-74
2023/09/05 09:16:19;;;;;;;;;;;24.70;99.90;;;;;;7331366;19;109532;-73
2023/09/05 09:18:46;;;;;;;;;;;24.80;99.90;;;;;;7333997;19;109168;-72
2023/09/05 09:21:15;;;;;;;;;;;24.90;99.90;;;;;;7333656;19;108645;-72
2023/09/05 09:23:45;;;;;;;;;;;24.90;99.90;;;;;;7330240;19;109315;-73
2023/09/05 09:26:13;;;;;;;;;;;25.00;99.90;;;;;;7339140;19;109039;-72
2023/09/05 09:28:40;;;;;;;;;;;25.10;99.90;;;;;;7339152;19;109131;-73
2023/09/05 09:31:12;;;;;;;;;;;25.20;99.90;;;;;;7343426;19;111860;-72
2023/09/05 09:33:41;;;;;;;;;;;25.30;99.90;;;;;;7337820;19;109152;-73
2023/09/05 09:36:09;;;;;;;;;;;25.40;99.90;;;;;;7337020;19;109196;-73
2023/09/05 09:38:38;;;;;;;;;;;25.50;99.90;;;;;;7338361;19;109686;-72
2023/09/05 09:41:06;;;;;;;;;;;25.60;99.90;;;;;;7338851;19;111595;-72
2023/09/05 09:43:35;;;;;;;;;;;25.70;99.90;;;;;;7338796;19;109093;-73
2023/09/05 09:46:04;;;;;;;;;;;25.80;99.90;;;;;;7338228;19;109126;-73
2023/09/05 09:48:36;;;;;;;;;;;25.80;99.90;;;;;;7337784;19;110020;-73
2023/09/05 09:51:04;;;;;;;;;;;25.80;99.90;;;;;;7335863;19;109268;-72
2023/09/05 09:53:37;;;;;;;;;;;26.00;99.90;;;;;;7342965;19;108740;-73
2023/09/05 09:56:08;;;;;;;;;;;26.10;99.90;;;;;;7338574;19;110648;-72
2023/09/05 09:58:36;;;;;;;;;;;26.20;99.90;;;;;;7339113;19;108533;-72
2023/09/05 10:01:04;;;;;;;;;;;26.30;99.90;;;;;;7339429;19;109494;-73
2023/09/05 10:03:31;;;;;;;;;;;26.50;99.90;;;;;;7334704;19;109071;-73
2023/09/05 10:06:00;;;;;;;;;;;26.60;99.90;;;;;;7338825;19;110108;-73
2023/09/05 10:08:28;;;;;;;;;;;26.70;99.90;;;;;;7337729;19;110871;-74
2023/09/05 10:10:56;;;;;;;;;;;26.70;99.90;;;;;;7337457;19;109768;-74
2023/09/05 10:13:27;;;;;;;;;;;26.70;99.90;;;;;;7344506;19;113580;-74
2023/09/05 10:15:55;;;;;;;;;;;26.80;99.90;;;;;;7334530;19;111080;-74
2023/09/05 10:18:22;;;;;;;;;;;26.80;99.90;;;;;;7335969;19;111098;-74
2023/09/05 10:20:50;;;;;;;;;;;26.90;99.90;;;;;;7337538;19;108831;-74
2023/09/05 10:23:18;;;;;;;;;;;27.10;99.90;;;;;;7336835;19;109190;-74
2023/09/05 10:25:46;;;;;;;;;;;27.10;99.90;;;;;;7337271;19;109948;-74
2023/09/05 10:28:14;;;;;;;;;;;27.10;99.90;;;;;;7333605;19;109764;-74
2023/09/05 10:30:43;;;;;;;;;;;27.00;99.90;;;;;;7337109;19;110123;-74
2023/09/05 10:33:15;;;;;;;;;;;27.10;99.90;;;;;;7336580;19;109009;-74
2023/09/05 10:35:47;;;;;;;;;;;27.20;99.90;;;;;;7340795;19;109800;-74
2023/09/05 10:38:15;;;;;;;;;;;27.30;99.90;;;;;;7335592;19;108510;-74
2023/09/05 10:40:42;;;;;;;;;;;27.40;99.90;;;;;;7334119;19;109410;-74
2023/09/05 10:43:15;;;;;;;;;;;27.50;99.90;;;;;;7335364;19;109973;-74
2023/09/05 10:45:42;;;;;;;;;;;27.60;99.90;;;;;;7332266;19;108952;-74
2023/09/05 10:48:11;;;;;;;;;;;27.70;99.90;;;;;;7333930;19;109129;-75
2023/09/05 10:50:57;;;;;;;;;;;27.90;99.90;;;;;;7330776;19;109769;-74
2023/09/05 10:53:24;;;;;;;;;;;27.90;99.90;;;;;;7334611;19;108967;-74
2023/09/05 10:55:54;;;;;;;;;;;27.90;99.90;;;;;;7333608;19;109599;-75
2023/09/05 10:58:36;;;;;;;;;;;28.00;99.90;;;;;;7339657;19;109137;-75
2023/09/05 11:01:22;;;;;;;;;;;28.00;99.90;;;;;;7332521;19;109424;-74
2023/09/05 11:03:50;;;;;;;;;;;28.10;99.90;;;;;;7333351;19;110414;-73
2023/09/05 11:06:17;;;;;;;;;;;28.20;99.90;;;;;;7332861;19;108787;-75
2023/09/05 11:08:45;;;;;;;;;;;28.30;99.90;;;;;;7335950;19;110245;-74
2023/09/05 11:11:22;;;;;;;;;;;28.50;99.90;;;;;;7330842;19;109716;-74
2023/09/05 11:13:50;;;;;;;;;;;28.50;99.90;;;;;;7335333;19;108858;-77
2023/09/05 11:16:17;;;;;;;;;;;28.60;99.90;;;;;;7334091;19;109771;-74
2023/09/05 11:18:54;;;;;;;;;;;28.70;99.90;;;;;;7334475;19;109388;-75
2023/09/05 11:21:22;;;;;;;;;;;28.80;99.90;;;;;;7340791;19;108476;-75
2023/09/05 11:23:51;;;;;;;;;;;28.90;99.90;;;;;;7331241;19;110890;-75
2023/09/05 11:26:19;;;;;;;;;;;29.00;99.90;;;;;;7334080;19;108971;-74
2023/09/05 11:28:52;;;;;;;;;;;29.10;99.90;;;;;;7333042;19;108414;-74
2023/09/05 11:31:21;;;;;;;;;;;29.10;99.90;;;;;;7332404;19;110784;-77
2023/09/05 11:33:48;;;;;;;;;;;29.20;99.90;;;;;;7333065;19;108776;-74
2023/09/05 11:36:15;;;;;;;;;;;29.30;99.90;;;;;;7336835;19;110186;-72
2023/09/05 11:38:46;;;;;;;;;;;29.30;99.90;;;;;;7333735;19;108905;-74
2023/09/05 11:41:15;;;;;;;;;;;29.40;99.90;;;;;;7332661;19;108356;-74
2023/09/05 11:43:52;;;;;;;;;;;29.50;99.90;;;;;;7338055;19;108870;-74
2023/09/05 11:46:20;;;;;;;;;;;29.60;99.90;;;;;;7333928;19;108515;-74
2023/09/05 11:48:49;;;;;;;;;;;29.70;99.90;;;;;;7329211;19;108525;-75
2023/09/05 11:51:16;;;;;;;;;;;29.90;99.90;;;;;;7331794;19;109816;-75
2023/09/05 11:53:44;;;;;;;;;;;30.00;99.90;;;;;;7331819;19;108487;-75
2023/09/05 11:56:11;;;;;;;;;;;30.10;99.90;;;;;;7333454;19;109539;-75
2023/09/05 11:58:38;;;;;;;;;;;30.10;99.90;;;;;;7333772;19;110366;-75
2023/09/05 12:01:06;;;;;;;;;;;30.20;99.90;;;;;;7333370;19;108537;-76
2023/09/05 12:03:36;;;;;;;;;;;30.30;99.90;;;;;;7335399;19;110815;-76
2023/09/05 12:06:04;;;;;;;;;;;30.50;99.90;;;;;;7340485;19;109312;-75
2023/09/05 12:08:33;;;;;;;;;;;30.70;99.90;;;;;;7336505;19;109359;-77
2023/09/05 12:11:04;;;;;;;;;;;30.80;99.90;;;;;;7334092;19;109992;-75
2023/09/05 12:13:39;;;;;;;;;;;30.90;99.90;;;;;;7334930;19;108989;-76
2023/09/05 12:16:08;;;;;;;;;;;30.90;99.90;;;;;;7332186;19;109322;-76
2023/09/05 12:18:36;;;;;;;;;;;31.10;99.90;;;;;;7334507;19;109261;-75
2023/09/05 12:21:03;;;;;;;;;;;31.30;99.90;;;;;;7332151;19;108621;-76
2023/09/05 12:23:30;;;;;;;;;;;31.40;99.90;;;;;;7333610;19;109512;-76
2023/09/05 12:25:57;;;;;;;;;;;31.40;99.90;;;;;;7338869;19;109091;-75
2023/09/05 12:28:25;;;;;;;;;;;31.40;99.90;;;;;;7336291;19;108805;-75
2023/09/05 12:31:06;;;;;;;;;;;31.50;99.90;;;;;;7334515;19;110017;-73
2023/09/05 12:33:33;;;;;;;;;;;31.60;99.90;;;;;;7334412;19;109002;-73
2023/09/05 12:36:00;;;;;;;;;;;31.70;99.90;;;;;;7333106;19;110208;-73
2023/09/05 12:38:30;;;;;;;;;;;31.90;99.90;;;;;;7333849;19;110962;-73
2023/09/05 12:40:58;;;;;;;;;;;32.10;99.90;;;;;;7329621;19;108521;-74
2023/09/05 12:43:25;;;;;;;;;;;32.10;99.90;;;;;;7331987;19;109070;-73
2023/09/05 12:45:52;;;;;;;;;;;32.10;99.90;;;;;;7333697;19;110637;-73
2023/09/05 12:48:19;;;;;;;;;;;32.20;99.90;;;;;;7337548;19;108467;-73
2023/09/05 12:50:48;;;;;;;;;;;32.20;99.70;;;;;;7329395;19;109287;-73
2023/09/05 12:53:19;;;;;;;;;;;32.30;99.90;;;;;;7334479;19;109178;-73
2023/09/05 12:55:47;;;;;;;;;;;32.50;99.90;;;;;;7332487;19;108723;-73
2023/09/05 12:58:14;;;;;;;;;;;32.60;99.90;;;;;;7336051;19;109254;-73
2023/09/05 13:00:41;;;;;;;;;;;32.80;99.90;;;;;;7335723;19;110169;-73
2023/09/05 13:03:10;;;;;;;;;;;32.80;99.70;;;;;;7338392;19;109502;-74
2023/09/05 13:05:39;;;;;;;;;;;32.80;98.80;;;;;;7340538;19;109142;-74
2023/09/05 13:08:09;;;;;;;;;;;32.90;99.90;;;;;;7342063;19;109786;-75
2023/09/05 13:10:49;;;;;;;;;;;33.00;97.40;;;;;;7345905;19;109245;-73
2023/09/05 13:13:17;;;;;;;;;;;33.00;99.60;;;;;;7339530;19;108644;-74
2023/09/05 13:15:45;;;;;;;;;;;33.20;98.80;;;;;;7340332;19;109734;-73
2023/09/05 13:18:13;;;;;;;;;;;33.30;98.70;;;;;;7339532;19;110384;-75
2023/09/05 13:20:40;;;;;;;;;;;33.40;99.40;;;;;;7340365;19;108784;-75
2023/09/05 13:23:07;;;;;;;;;;;33.40;97.60;;;;;;7341258;19;108534;-74
2023/09/05 13:25:36;;;;;;;;;;;33.50;98.00;;;;;;7336645;19;109927;-75
2023/09/05 13:28:04;;;;;;;;;;;33.60;99.40;;;;;;7341543;19;109011;-74
2023/09/05 13:30:33;;;;;;;;;;;33.60;98.80;;;;;;7341298;19;108628;-74
2023/09/05 13:33:01;;;;;;;;;;;33.80;99.20;;;;;;7344699;19;109692;-73
2023/09/05 13:35:31;;;;;;;;;;;33.90;98.80;;;;;;7337954;19;109112;-74
2023/09/05 13:37:58;;;;;;;;;;;34.00;98.80;;;;;;7338323;19;109100;-74
2023/09/05 13:40:28;;;;;;;;;;;34.20;98.50;;;;;;7337353;19;108931;-75
2023/09/05 13:42:56;;;;;;;;;;;34.20;98.70;;;;;;7340202;19;108934;-74
2023/09/05 13:45:23;;;;;;;;;;;34.10;97.20;;;;;;7337035;19;109498;-74
2023/09/05 13:47:50;;;;;;;;;;;34.20;96.80;;;;;;7339650;19;109535;-74
2023/09/05 13:50:21;;;;;;;;;;;34.20;97.90;;;;;;7338665;19;108796;-75
2023/09/05 13:52:48;;;;;;;;;;;34.30;97.70;;;;;;7341259;19;109265;-73
2023/09/05 13:55:15;;;;;;;;;;;34.30;96.80;;;;;;7341107;19;109145;-73
2023/09/05 13:57:45;;;;;;;;;;;34.40;97.60;;;;;;7336883;19;109103;-74
2023/09/05 14:00:12;;;;;;;;;;;34.50;97.50;;;;;;7336521;19;109998;-74
2023/09/05 14:02:40;;;;;;;;;;;34.60;96.80;;;;;;7326484;19;111521;-82
2023/09/05 14:05:10;;;;;;;;;;;34.70;97.40;;;;;;7324146;19;110684;-83
2023/09/05 14:07:43;;;;;;;;;;;34.70;97.80;;;;;;7330585;19;110014;-82
2023/09/05 14:10:12;;;;;;;;;;;34.90;96.70;;;;;;7328978;19;109709;-82
2023/09/05 14:12:39;;;;;;;;;;;35.00;97.40;;;;;;7320684;19;110367;-83
2023/09/05 14:15:07;;;;;;;;;;;35.00;95.50;;;;;;7327073;19;109163;-82
2023/09/05 14:17:34;;;;;;;;;;;35.00;96.10;;;;;;7337752;19;111917;-82
2023/09/05 14:20:02;;;;;;;;;;;35.10;96.90;;;;;;7338456;19;111213;-82
2023/09/05 14:22:32;;;;;;;;;;;35.10;96.30;;;;;;7328893;19;110673;-83
2023/09/05 14:24:59;;;;;;;;;;;35.10;95.30;;;;;;7328522;19;113109;-82
2023/09/05 14:27:26;;;;;;;;;;;35.10;96.00;;;;;;7329784;19;109542;-83